sensor_id;sensor_type;location;lat;lon;timestamp;P1;durP1;ratioP1;P2;durP2;ratioP2
70549;SDS011;58101;48.658;2.328;2022-12-07T00:03:35;54.42;;;18.05;;
70549;SDS011;58101;48.658;2.328;2022-12-07T00:06:02;48.33;;;18.50;;
70549;SDS011;58101;48.658;2.328;2022-12-07T00:08:29;51.17;;;18.55;;
70549;SDS011;58101;48.658;2.328;2022-12-07T00:11:00;56.67;;;19.02;;
70549;SDS011;58101;48.658;2.328;2022-12-07T00:13:27;46.17;;;17.10;;
70549;SDS011;58101;48.658;2.328;2022-12-07T00:15:52;45.38;;;17.88;;
70549;SDS011;58101;48.658;2.328;2022-12-07T00:18:18;43.28;;;16.80;;
70549;SDS011;58101;48.658;2.328;2022-12-07T00:20:43;52.17;;;17.33;;
70549;SDS011;58101;48.658;2.328;2022-12-07T00:23:09;46.63;;;17.33;;
70549;SDS011;58101;48.658;2.328;2022-12-07T00:25:35;44.67;;;16.23;;
70549;SDS011;58101;48.658;2.328;2022-12-07T00:28:00;48.88;;;16.15;;
70549;SDS011;58101;48.658;2.328;2022-12-07T00:30:26;48.75;;;16.83;;
70549;SDS011;58101;48.658;2.328;2022-12-07T00:32:52;48.35;;;16.77;;
70549;SDS011;58101;48.658;2.328;2022-12-07T00:35:17;49.95;;;17.63;;
70549;SDS011;58101;48.658;2.328;2022-12-07T00:37:43;49.85;;;16.33;;
70549;SDS011;58101;48.658;2.328;2022-12-07T00:40:08;46.10;;;17.15;;
70549;SDS011;58101;48.658;2.328;2022-12-07T00:42:34;45.13;;;16.67;;
70549;SDS011;58101;48.658;2.328;2022-12-07T00:45:00;50.05;;;17.00;;
70549;SDS011;58101;48.658;2.328;2022-12-07T00:47:26;50.92;;;18.13;;
70549;SDS011;58101;48.658;2.328;2022-12-07T00:49:51;51.97;;;18.08;;
70549;SDS011;58101;48.658;2.328;2022-12-07T00:52:17;46.53;;;17.50;;
70549;SDS011;58101;48.658;2.328;2022-12-07T00:54:42;47.42;;;16.63;;
70549;SDS011;58101;48.658;2.328;2022-12-07T00:57:08;52.15;;;18.73;;
70549;SDS011;58101;48.658;2.328;2022-12-07T00:59:34;46.85;;;18.10;;
70549;SDS011;58101;48.658;2.328;2022-12-07T01:01:59;50.58;;;18.67;;
70549;SDS011;58101;48.658;2.328;2022-12-07T01:04:25;51.65;;;18.38;;
70549;SDS011;58101;48.658;2.328;2022-12-07T01:06:51;50.58;;;18.70;;
70549;SDS011;58101;48.658;2.328;2022-12-07T01:09:16;50.78;;;18.20;;
70549;SDS011;58101;48.658;2.328;2022-12-07T01:11:42;49.45;;;18.48;;
70549;SDS011;58101;48.658;2.328;2022-12-07T01:14:08;51.67;;;18.02;;
70549;SDS011;58101;48.658;2.328;2022-12-07T01:16:34;55.85;;;19.30;;
70549;SDS011;58101;48.658;2.328;2022-12-07T01:19:00;53.22;;;18.27;;
70549;SDS011;58101;48.658;2.328;2022-12-07T01:21:27;51.78;;;18.65;;
70549;SDS011;58101;48.658;2.328;2022-12-07T01:23:54;51.38;;;18.33;;
70549;SDS011;58101;48.658;2.328;2022-12-07T01:26:23;51.70;;;19.05;;
70549;SDS011;58101;48.658;2.328;2022-12-07T01:28:49;46.30;;;18.05;;
70549;SDS011;58101;48.658;2.328;2022-12-07T01:31:17;56.42;;;19.02;;
70549;SDS011;58101;48.658;2.328;2022-12-07T01:33:45;55.67;;;20.13;;
70549;SDS011;58101;48.658;2.328;2022-12-07T01:36:20;56.13;;;20.27;;
70549;SDS011;58101;48.658;2.328;2022-12-07T01:38:51;53.95;;;19.65;;
70549;SDS011;58101;48.658;2.328;2022-12-07T01:41:21;52.83;;;19.55;;
70549;SDS011;58101;48.658;2.328;2022-12-07T01:46:32;58.60;;;20.50;;
70549;SDS011;58101;48.658;2.328;2022-12-07T01:48:57;51.75;;;20.98;;
70549;SDS011;58101;48.658;2.328;2022-12-07T01:51:24;54.78;;;20.33;;
70549;SDS011;58101;48.658;2.328;2022-12-07T01:53:51;48.95;;;17.73;;
70549;SDS011;58101;48.658;2.328;2022-12-07T01:56:19;48.17;;;17.40;;
70549;SDS011;58101;48.658;2.328;2022-12-07T01:58:48;48.60;;;17.63;;
70549;SDS011;58101;48.658;2.328;2022-12-07T02:01:14;49.58;;;18.02;;
70549;SDS011;58101;48.658;2.328;2022-12-07T02:03:43;46.13;;;16.55;;
70549;SDS011;58101;48.658;2.328;2022-12-07T02:06:15;39.30;;;15.50;;
70549;SDS011;58101;48.658;2.328;2022-12-07T02:08:44;39.38;;;14.10;;
70549;SDS011;58101;48.658;2.328;2022-12-07T02:11:10;38.35;;;13.95;;
70549;SDS011;58101;48.658;2.328;2022-12-07T02:13:36;39.33;;;14.15;;
70549;SDS011;58101;48.658;2.328;2022-12-07T02:16:08;41.45;;;14.82;;
70549;SDS011;58101;48.658;2.328;2022-12-07T02:18:55;37.95;;;14.40;;
70549;SDS011;58101;48.658;2.328;2022-12-07T02:21:54;39.30;;;14.15;;
70549;SDS011;58101;48.658;2.328;2022-12-07T02:27:45;38.40;;;13.93;;
70549;SDS011;58101;48.658;2.328;2022-12-07T02:30:16;37.58;;;13.02;;
70549;SDS011;58101;48.658;2.328;2022-12-07T02:35:25;33.85;;;12.40;;
70549;SDS011;58101;48.658;2.328;2022-12-07T02:40:47;32.65;;;11.05;;
70549;SDS011;58101;48.658;2.328;2022-12-07T02:45:51;32.30;;;11.18;;
70549;SDS011;58101;48.658;2.328;2022-12-07T02:48:21;35.28;;;11.70;;
70549;SDS011;58101;48.658;2.328;2022-12-07T02:50:50;30.30;;;10.45;;
70549;SDS011;58101;48.658;2.328;2022-12-07T02:55:58;29.33;;;10.35;;
70549;SDS011;58101;48.658;2.328;2022-12-07T02:58:58;31.23;;;9.32;;
70549;SDS011;58101;48.658;2.328;2022-12-07T03:01:41;30.40;;;9.85;;
70549;SDS011;58101;48.658;2.328;2022-12-07T03:06:42;28.52;;;9.07;;
70549;SDS011;58101;48.658;2.328;2022-12-07T03:09:20;26.83;;;8.95;;
70549;SDS011;58101;48.658;2.328;2022-12-07T03:11:54;27.08;;;9.20;;
70549;SDS011;58101;48.658;2.328;2022-12-07T03:14:30;26.48;;;8.77;;
70549;SDS011;58101;48.658;2.328;2022-12-07T03:17:01;25.33;;;8.68;;
70549;SDS011;58101;48.658;2.328;2022-12-07T03:19:38;27.88;;;9.18;;
70549;SDS011;58101;48.658;2.328;2022-12-07T03:22:07;24.45;;;8.88;;
70549;SDS011;58101;48.658;2.328;2022-12-07T03:24:36;26.67;;;9.02;;
70549;SDS011;58101;48.658;2.328;2022-12-07T03:27:38;28.38;;;9.18;;
70549;SDS011;58101;48.658;2.328;2022-12-07T03:30:18;28.10;;;8.73;;
70549;SDS011;58101;48.658;2.328;2022-12-07T03:40:30;37.05;;;10.75;;
70549;SDS011;58101;48.658;2.328;2022-12-07T03:43:10;43.60;;;9.57;;
70549;SDS011;58101;48.658;2.328;2022-12-07T03:48:22;36.03;;;9.15;;
70549;SDS011;58101;48.658;2.328;2022-12-07T03:51:02;33.17;;;8.93;;
70549;SDS011;58101;48.658;2.328;2022-12-07T03:53:33;38.30;;;9.80;;
70549;SDS011;58101;48.658;2.328;2022-12-07T03:56:19;40.10;;;9.38;;
70549;SDS011;58101;48.658;2.328;2022-12-07T03:58:46;32.05;;;9.82;;
70549;SDS011;58101;48.658;2.328;2022-12-07T04:01:12;47.22;;;11.07;;
70549;SDS011;58101;48.658;2.328;2022-12-07T04:03:38;43.35;;;10.18;;
70549;SDS011;58101;48.658;2.328;2022-12-07T04:06:04;53.17;;;10.20;;
70549;SDS011;58101;48.658;2.328;2022-12-07T04:08:29;34.10;;;9.60;;
70549;SDS011;58101;48.658;2.328;2022-12-07T04:10:55;40.90;;;9.70;;
70549;SDS011;58101;48.658;2.328;2022-12-07T04:13:21;29.23;;;9.05;;
70549;SDS011;58101;48.658;2.328;2022-12-07T04:15:47;26.58;;;8.65;;
70549;SDS011;58101;48.658;2.328;2022-12-07T04:18:12;32.47;;;9.23;;
70549;SDS011;58101;48.658;2.328;2022-12-07T04:20:38;25.77;;;8.88;;
70549;SDS011;58101;48.658;2.328;2022-12-07T04:23:04;30.40;;;9.70;;
70549;SDS011;58101;48.658;2.328;2022-12-07T04:25:29;29.38;;;9.25;;
70549;SDS011;58101;48.658;2.328;2022-12-07T04:27:55;27.52;;;10.32;;
70549;SDS011;58101;48.658;2.328;2022-12-07T04:30:21;30.45;;;10.18;;
70549;SDS011;58101;48.658;2.328;2022-12-07T04:32:47;35.03;;;11.02;;
70549;SDS011;58101;48.658;2.328;2022-12-07T04:35:12;32.67;;;11.05;;
70549;SDS011;58101;48.658;2.328;2022-12-07T04:37:44;29.27;;;10.25;;
70549;SDS011;58101;48.658;2.328;2022-12-07T04:40:10;27.10;;;9.40;;
70549;SDS011;58101;48.658;2.328;2022-12-07T04:42:40;30.48;;;10.38;;
70549;SDS011;58101;48.658;2.328;2022-12-07T04:45:06;33.30;;;10.38;;
70549;SDS011;58101;48.658;2.328;2022-12-07T04:47:32;33.17;;;10.98;;
70549;SDS011;58101;48.658;2.328;2022-12-07T04:49:58;39.72;;;12.20;;
70549;SDS011;58101;48.658;2.328;2022-12-07T04:52:24;37.05;;;11.68;;
70549;SDS011;58101;48.658;2.328;2022-12-07T04:54:49;37.63;;;11.88;;
70549;SDS011;58101;48.658;2.328;2022-12-07T04:57:15;36.78;;;12.15;;
70549;SDS011;58101;48.658;2.328;2022-12-07T04:59:41;36.08;;;10.90;;
70549;SDS011;58101;48.658;2.328;2022-12-07T05:02:06;43.65;;;12.30;;
70549;SDS011;58101;48.658;2.328;2022-12-07T05:04:35;48.33;;;12.50;;
70549;SDS011;58101;48.658;2.328;2022-12-07T05:07:01;41.60;;;12.88;;
70549;SDS011;58101;48.658;2.328;2022-12-07T05:09:26;41.70;;;12.65;;
70549;SDS011;58101;48.658;2.328;2022-12-07T05:11:52;39.50;;;11.93;;
70549;SDS011;58101;48.658;2.328;2022-12-07T05:14:19;39.20;;;11.38;;
70549;SDS011;58101;48.658;2.328;2022-12-07T05:16:46;44.20;;;11.55;;
70549;SDS011;58101;48.658;2.328;2022-12-07T05:19:14;31.92;;;11.10;;
70549;SDS011;58101;48.658;2.328;2022-12-07T05:21:40;47.42;;;11.50;;
70549;SDS011;58101;48.658;2.328;2022-12-07T05:24:07;30.75;;;10.77;;
70549;SDS011;58101;48.658;2.328;2022-12-07T05:26:34;30.05;;;10.27;;
70549;SDS011;58101;48.658;2.328;2022-12-07T05:29:00;31.23;;;10.23;;
70549;SDS011;58101;48.658;2.328;2022-12-07T05:31:26;26.60;;;9.82;;
70549;SDS011;58101;48.658;2.328;2022-12-07T05:33:52;28.77;;;10.02;;
70549;SDS011;58101;48.658;2.328;2022-12-07T05:36:18;28.90;;;9.35;;
70549;SDS011;58101;48.658;2.328;2022-12-07T05:38:44;26.85;;;9.40;;
70549;SDS011;58101;48.658;2.328;2022-12-07T05:41:11;27.10;;;9.02;;
70549;SDS011;58101;48.658;2.328;2022-12-07T05:43:58;28.48;;;10.35;;
70549;SDS011;58101;48.658;2.328;2022-12-07T05:46:23;28.85;;;9.68;;
70549;SDS011;58101;48.658;2.328;2022-12-07T05:48:49;28.67;;;10.05;;
70549;SDS011;58101;48.658;2.328;2022-12-07T05:51:15;29.08;;;9.82;;
70549;SDS011;58101;48.658;2.328;2022-12-07T05:53:41;31.15;;;9.98;;
70549;SDS011;58101;48.658;2.328;2022-12-07T05:56:06;30.15;;;10.52;;
70549;SDS011;58101;48.658;2.328;2022-12-07T05:58:32;32.00;;;9.90;;
70549;SDS011;58101;48.658;2.328;2022-12-07T06:01:16;28.48;;;10.27;;
70549;SDS011;58101;48.658;2.328;2022-12-07T06:03:42;32.17;;;9.95;;
70549;SDS011;58101;48.658;2.328;2022-12-07T06:06:07;28.85;;;9.85;;
70549;SDS011;58101;48.658;2.328;2022-12-07T06:08:33;28.17;;;9.75;;
70549;SDS011;58101;48.658;2.328;2022-12-07T06:10:59;25.77;;;9.40;;
70549;SDS011;58101;48.658;2.328;2022-12-07T06:13:43;28.48;;;9.35;;
70549;SDS011;58101;48.658;2.328;2022-12-07T06:16:08;27.35;;;9.90;;
70549;SDS011;58101;48.658;2.328;2022-12-07T06:18:34;26.90;;;9.85;;
70549;SDS011;58101;48.658;2.328;2022-12-07T06:21:00;30.48;;;10.57;;
70549;SDS011;58101;48.658;2.328;2022-12-07T06:23:25;26.60;;;10.00;;
70549;SDS011;58101;48.658;2.328;2022-12-07T06:25:51;26.55;;;10.00;;
70549;SDS011;58101;48.658;2.328;2022-12-07T06:28:17;28.73;;;10.88;;
70549;SDS011;58101;48.658;2.328;2022-12-07T06:31:02;29.58;;;10.75;;
70549;SDS011;58101;48.658;2.328;2022-12-07T06:33:28;27.90;;;9.75;;
70549;SDS011;58101;48.658;2.328;2022-12-07T06:35:54;26.27;;;9.90;;
70549;SDS011;58101;48.658;2.328;2022-12-07T06:38:20;29.02;;;11.05;;
70549;SDS011;58101;48.658;2.328;2022-12-07T06:40:46;29.42;;;10.32;;
70549;SDS011;58101;48.658;2.328;2022-12-07T06:43:12;29.85;;;10.60;;
70549;SDS011;58101;48.658;2.328;2022-12-07T06:45:38;30.48;;;11.27;;
70549;SDS011;58101;48.658;2.328;2022-12-07T06:48:03;30.05;;;11.07;;
70549;SDS011;58101;48.658;2.328;2022-12-07T06:50:29;30.42;;;10.90;;
70549;SDS011;58101;48.658;2.328;2022-12-07T06:52:55;33.50;;;12.20;;
70549;SDS011;58101;48.658;2.328;2022-12-07T06:55:20;30.17;;;11.52;;
70549;SDS011;58101;48.658;2.328;2022-12-07T06:57:46;34.15;;;12.85;;
70549;SDS011;58101;48.658;2.328;2022-12-07T07:00:12;34.42;;;12.43;;
70549;SDS011;58101;48.658;2.328;2022-12-07T07:02:38;38.72;;;13.88;;
70549;SDS011;58101;48.658;2.328;2022-12-07T07:05:04;32.42;;;12.23;;
70549;SDS011;58101;48.658;2.328;2022-12-07T07:07:30;37.28;;;13.18;;
70549;SDS011;58101;48.658;2.328;2022-12-07T07:09:55;37.65;;;13.30;;
70549;SDS011;58101;48.658;2.328;2022-12-07T07:12:21;35.78;;;13.40;;
70549;SDS011;58101;48.658;2.328;2022-12-07T07:17:55;35.88;;;13.27;;
70549;SDS011;58101;48.658;2.328;2022-12-07T07:20:20;35.88;;;12.75;;
70549;SDS011;58101;48.658;2.328;2022-12-07T07:22:50;37.35;;;14.18;;
70549;SDS011;58101;48.658;2.328;2022-12-07T07:25:18;38.58;;;13.90;;
70549;SDS011;58101;48.658;2.328;2022-12-07T07:27:44;41.25;;;14.57;;
70549;SDS011;58101;48.658;2.328;2022-12-07T07:30:09;41.53;;;15.63;;
70549;SDS011;58101;48.658;2.328;2022-12-07T07:32:36;37.53;;;14.15;;
70549;SDS011;58101;48.658;2.328;2022-12-07T07:35:02;42.25;;;14.43;;
70549;SDS011;58101;48.658;2.328;2022-12-07T07:37:28;37.47;;;13.48;;
70549;SDS011;58101;48.658;2.328;2022-12-07T07:39:53;31.40;;;12.52;;
70549;SDS011;58101;48.658;2.328;2022-12-07T07:42:19;38.25;;;12.98;;
70549;SDS011;58101;48.658;2.328;2022-12-07T07:44:45;34.72;;;12.45;;
70549;SDS011;58101;48.658;2.328;2022-12-07T07:47:10;37.38;;;13.13;;
70549;SDS011;58101;48.658;2.328;2022-12-07T07:49:36;40.00;;;12.90;;
70549;SDS011;58101;48.658;2.328;2022-12-07T07:52:05;27.75;;;11.63;;
70549;SDS011;58101;48.658;2.328;2022-12-07T07:54:31;31.80;;;11.95;;
70549;SDS011;58101;48.658;2.328;2022-12-07T07:57:15;30.48;;;11.38;;
70549;SDS011;58101;48.658;2.328;2022-12-07T07:59:42;32.30;;;11.88;;
70549;SDS011;58101;48.658;2.328;2022-12-07T08:02:17;31.60;;;11.32;;
70549;SDS011;58101;48.658;2.328;2022-12-07T08:04:45;36.63;;;12.45;;
70549;SDS011;58101;48.658;2.328;2022-12-07T08:07:13;33.67;;;12.05;;
70549;SDS011;58101;48.658;2.328;2022-12-07T08:13:05;32.33;;;11.88;;
70549;SDS011;58101;48.658;2.328;2022-12-07T08:15:37;34.95;;;12.55;;
70549;SDS011;58101;48.658;2.328;2022-12-07T08:18:04;34.22;;;12.98;;
70549;SDS011;58101;48.658;2.328;2022-12-07T08:23:33;37.13;;;13.63;;
70549;SDS011;58101;48.658;2.328;2022-12-07T08:26:17;73.85;;;26.40;;
70549;SDS011;58101;48.658;2.328;2022-12-07T08:28:43;48.55;;;16.83;;
70549;SDS011;58101;48.658;2.328;2022-12-07T08:31:11;55.13;;;20.13;;
70549;SDS011;58101;48.658;2.328;2022-12-07T08:33:39;42.47;;;16.33;;
70549;SDS011;58101;48.658;2.328;2022-12-07T08:36:06;33.10;;;13.65;;
70549;SDS011;58101;48.658;2.328;2022-12-07T08:38:34;32.25;;;13.20;;
70549;SDS011;58101;48.658;2.328;2022-12-07T08:41:00;39.08;;;13.98;;
70549;SDS011;58101;48.658;2.328;2022-12-07T08:43:26;46.70;;;20.10;;
70549;SDS011;58101;48.658;2.328;2022-12-07T08:46:13;71.93;;;32.95;;
70549;SDS011;58101;48.658;2.328;2022-12-07T08:48:48;53.47;;;21.27;;
70549;SDS011;58101;48.658;2.328;2022-12-07T08:51:20;53.70;;;24.00;;
70549;SDS011;58101;48.658;2.328;2022-12-07T08:53:53;86.93;;;35.72;;
70549;SDS011;58101;48.658;2.328;2022-12-07T08:56:20;50.63;;;22.00;;
70549;SDS011;58101;48.658;2.328;2022-12-07T08:58:46;40.67;;;15.90;;
70549;SDS011;58101;48.658;2.328;2022-12-07T09:01:12;39.95;;;15.95;;
70549;SDS011;58101;48.658;2.328;2022-12-07T09:03:38;38.13;;;16.63;;
70549;SDS011;58101;48.658;2.328;2022-12-07T09:08:40;39.75;;;15.80;;
70549;SDS011;58101;48.658;2.328;2022-12-07T09:11:08;40.60;;;15.85;;
70549;SDS011;58101;48.658;2.328;2022-12-07T09:13:34;32.47;;;13.60;;
70549;SDS011;58101;48.658;2.328;2022-12-07T09:16:00;33.15;;;13.48;;
70549;SDS011;58101;48.658;2.328;2022-12-07T09:18:26;34.47;;;16.08;;
70549;SDS011;58101;48.658;2.328;2022-12-07T09:20:51;29.63;;;12.25;;
70549;SDS011;58101;48.658;2.328;2022-12-07T09:23:17;29.08;;;13.05;;
70549;SDS011;58101;48.658;2.328;2022-12-07T09:25:43;28.70;;;12.15;;
70549;SDS011;58101;48.658;2.328;2022-12-07T09:28:08;27.65;;;11.35;;
70549;SDS011;58101;48.658;2.328;2022-12-07T09:30:34;28.95;;;12.05;;
70549;SDS011;58101;48.658;2.328;2022-12-07T09:33:00;29.90;;;11.60;;
70549;SDS011;58101;48.658;2.328;2022-12-07T09:35:25;25.45;;;11.13;;
70549;SDS011;58101;48.658;2.328;2022-12-07T09:37:51;26.42;;;11.50;;
70549;SDS011;58101;48.658;2.328;2022-12-07T09:40:17;23.10;;;10.57;;
70549;SDS011;58101;48.658;2.328;2022-12-07T09:42:53;27.55;;;11.80;;
70549;SDS011;58101;48.658;2.328;2022-12-07T09:45:38;25.75;;;11.35;;
70549;SDS011;58101;48.658;2.328;2022-12-07T09:48:04;24.38;;;11.18;;
70549;SDS011;58101;48.658;2.328;2022-12-07T09:50:31;24.67;;;10.77;;
70549;SDS011;58101;48.658;2.328;2022-12-07T09:55:53;21.30;;;10.60;;
70549;SDS011;58101;48.658;2.328;2022-12-07T09:58:23;19.88;;;10.48;;
70549;SDS011;58101;48.658;2.328;2022-12-07T10:00:55;18.92;;;10.60;;
70549;SDS011;58101;48.658;2.328;2022-12-07T10:03:25;20.60;;;10.68;;
70549;SDS011;58101;48.658;2.328;2022-12-07T10:05:52;19.17;;;9.90;;
70549;SDS011;58101;48.658;2.328;2022-12-07T10:08:18;19.63;;;9.52;;
70549;SDS011;58101;48.658;2.328;2022-12-07T10:10:44;17.63;;;9.43;;
70549;SDS011;58101;48.658;2.328;2022-12-07T10:13:15;18.63;;;9.73;;
70549;SDS011;58101;48.658;2.328;2022-12-07T10:18:25;20.40;;;10.45;;
70549;SDS011;58101;48.658;2.328;2022-12-07T10:21:05;19.80;;;10.10;;
70549;SDS011;58101;48.658;2.328;2022-12-07T10:24:00;18.25;;;9.00;;
70549;SDS011;58101;48.658;2.328;2022-12-07T10:29:26;14.82;;;7.93;;
70549;SDS011;58101;48.658;2.328;2022-12-07T10:34:47;14.75;;;7.40;;
70549;SDS011;58101;48.658;2.328;2022-12-07T11:06:34;15.18;;;7.10;;
70549;SDS011;58101;48.658;2.328;2022-12-07T11:12:00;14.90;;;7.78;;
70549;SDS011;58101;48.658;2.328;2022-12-07T11:14:52;15.63;;;7.55;;
70549;SDS011;58101;48.658;2.328;2022-12-07T11:17:33;13.52;;;6.82;;
70549;SDS011;58101;48.658;2.328;2022-12-07T11:20:02;13.68;;;7.03;;
70549;SDS011;58101;48.658;2.328;2022-12-07T11:22:51;15.00;;;6.97;;
70549;SDS011;58101;48.658;2.328;2022-12-07T11:26:24;14.27;;;6.78;;
70549;SDS011;58101;48.658;2.328;2022-12-07T11:28:59;13.48;;;5.97;;
70549;SDS011;58101;48.658;2.328;2022-12-07T11:31:52;14.27;;;6.68;;
70549;SDS011;58101;48.658;2.328;2022-12-07T11:36:57;14.05;;;6.68;;
70549;SDS011;58101;48.658;2.328;2022-12-07T11:39:33;14.52;;;6.82;;
70549;SDS011;58101;48.658;2.328;2022-12-07T11:42:04;13.30;;;6.38;;
70549;SDS011;58101;48.658;2.328;2022-12-07T11:47:10;14.98;;;6.93;;
70549;SDS011;58101;48.658;2.328;2022-12-07T11:58:15;12.60;;;6.40;;
70549;SDS011;58101;48.658;2.328;2022-12-07T12:06:44;12.27;;;4.93;;
70549;SDS011;58101;48.658;2.328;2022-12-07T12:09:32;12.18;;;4.57;;
70549;SDS011;58101;48.658;2.328;2022-12-07T12:12:30;14.00;;;4.35;;
70549;SDS011;58101;48.658;2.328;2022-12-07T12:18:07;11.15;;;3.92;;
70549;SDS011;58101;48.658;2.328;2022-12-07T12:26:03;13.60;;;4.65;;
70549;SDS011;58101;48.658;2.328;2022-12-07T12:33:44;13.18;;;4.40;;
70549;SDS011;58101;48.658;2.328;2022-12-07T12:36:26;12.27;;;4.03;;
70549;SDS011;58101;48.658;2.328;2022-12-07T12:39:10;10.88;;;3.85;;
70549;SDS011;58101;48.658;2.328;2022-12-07T12:51:48;14.02;;;4.43;;
70549;SDS011;58101;48.658;2.328;2022-12-07T12:54:18;14.23;;;4.65;;
70549;SDS011;58101;48.658;2.328;2022-12-07T13:18:01;12.80;;;4.00;;
70549;SDS011;58101;48.658;2.328;2022-12-07T13:23:16;12.38;;;4.35;;
70549;SDS011;58101;48.658;2.328;2022-12-07T13:25:48;12.38;;;4.43;;
70549;SDS011;58101;48.658;2.328;2022-12-07T13:28:37;12.88;;;4.15;;
70549;SDS011;58101;48.658;2.328;2022-12-07T13:33:41;13.05;;;4.82;;
70549;SDS011;58101;48.658;2.328;2022-12-07T13:36:25;13.82;;;5.00;;
70549;SDS011;58101;48.658;2.328;2022-12-07T13:38:53;13.27;;;4.82;;
70549;SDS011;58101;48.658;2.328;2022-12-07T13:41:22;14.07;;;4.90;;
70549;SDS011;58101;48.658;2.328;2022-12-07T13:49:19;21.25;;;7.35;;
70549;SDS011;58101;48.658;2.328;2022-12-07T13:51:46;19.98;;;7.82;;
70549;SDS011;58101;48.658;2.328;2022-12-07T13:54:12;20.27;;;7.53;;
70549;SDS011;58101;48.658;2.328;2022-12-07T13:59:05;16.52;;;6.75;;
70549;SDS011;58101;48.658;2.328;2022-12-07T14:01:37;17.95;;;7.05;;
70549;SDS011;58101;48.658;2.328;2022-12-07T14:06:52;20.00;;;7.65;;
70549;SDS011;58101;48.658;2.328;2022-12-07T14:09:19;32.17;;;10.27;;
70549;SDS011;58101;48.658;2.328;2022-12-07T14:11:50;20.83;;;8.52;;
70549;SDS011;58101;48.658;2.328;2022-12-07T14:14:20;18.00;;;6.40;;
70549;SDS011;58101;48.658;2.328;2022-12-07T14:19:45;17.17;;;6.28;;
70549;SDS011;58101;48.658;2.328;2022-12-07T14:25:20;13.68;;;5.82;;
70549;SDS011;58101;48.658;2.328;2022-12-07T14:27:57;18.48;;;6.60;;
70549;SDS011;58101;48.658;2.328;2022-12-07T14:30:25;16.42;;;6.82;;
70549;SDS011;58101;48.658;2.328;2022-12-07T14:32:54;19.15;;;7.35;;
70549;SDS011;58101;48.658;2.328;2022-12-07T14:35:23;18.80;;;7.40;;
70549;SDS011;58101;48.658;2.328;2022-12-07T14:37:49;22.10;;;7.15;;
70549;SDS011;58101;48.658;2.328;2022-12-07T14:40:19;20.88;;;6.85;;
70549;SDS011;58101;48.658;2.328;2022-12-07T14:42:47;15.88;;;6.68;;
70549;SDS011;58101;48.658;2.328;2022-12-07T14:45:21;16.40;;;6.03;;
70549;SDS011;58101;48.658;2.328;2022-12-07T14:47:47;19.27;;;6.65;;
70549;SDS011;58101;48.658;2.328;2022-12-07T14:50:17;17.02;;;5.70;;
70549;SDS011;58101;48.658;2.328;2022-12-07T14:52:46;15.60;;;6.47;;
70549;SDS011;58101;48.658;2.328;2022-12-07T14:55:33;14.77;;;6.03;;
70549;SDS011;58101;48.658;2.328;2022-12-07T14:57:59;17.77;;;5.70;;
70549;SDS011;58101;48.658;2.328;2022-12-07T15:00:26;14.50;;;5.97;;
70549;SDS011;58101;48.658;2.328;2022-12-07T15:02:52;17.10;;;6.35;;
70549;SDS011;58101;48.658;2.328;2022-12-07T15:05:18;15.93;;;5.65;;
70549;SDS011;58101;48.658;2.328;2022-12-07T15:07:45;17.15;;;5.82;;
70549;SDS011;58101;48.658;2.328;2022-12-07T15:12:54;14.52;;;5.60;;
70549;SDS011;58101;48.658;2.328;2022-12-07T15:15:20;17.75;;;5.95;;
70549;SDS011;58101;48.658;2.328;2022-12-07T15:17:45;18.25;;;5.65;;
70549;SDS011;58101;48.658;2.328;2022-12-07T15:20:12;14.73;;;5.75;;
70549;SDS011;58101;48.658;2.328;2022-12-07T15:22:39;18.02;;;6.55;;
70549;SDS011;58101;48.658;2.328;2022-12-07T15:25:05;17.35;;;5.95;;
70549;SDS011;58101;48.658;2.328;2022-12-07T15:27:31;15.25;;;6.07;;
70549;SDS011;58101;48.658;2.328;2022-12-07T15:29:57;16.20;;;5.63;;
70549;SDS011;58101;48.658;2.328;2022-12-07T15:32:22;18.00;;;6.28;;
70549;SDS011;58101;48.658;2.328;2022-12-07T15:34:48;20.17;;;7.32;;
70549;SDS011;58101;48.658;2.328;2022-12-07T15:37:15;16.65;;;6.28;;
70549;SDS011;58101;48.658;2.328;2022-12-07T15:39:40;17.42;;;6.90;;
70549;SDS011;58101;48.658;2.328;2022-12-07T15:42:07;18.90;;;7.22;;
70549;SDS011;58101;48.658;2.328;2022-12-07T15:44:33;19.70;;;7.05;;
70549;SDS011;58101;48.658;2.328;2022-12-07T15:47:17;19.67;;;7.18;;
70549;SDS011;58101;48.658;2.328;2022-12-07T15:49:42;21.52;;;6.93;;
70549;SDS011;58101;48.658;2.328;2022-12-07T15:52:08;18.73;;;7.47;;
70549;SDS011;58101;48.658;2.328;2022-12-07T15:54:34;17.42;;;7.22;;
70549;SDS011;58101;48.658;2.328;2022-12-07T15:57:00;20.92;;;7.80;;
70549;SDS011;58101;48.658;2.328;2022-12-07T15:59:26;21.83;;;8.05;;
70549;SDS011;58101;48.658;2.328;2022-12-07T16:01:53;20.85;;;7.95;;
70549;SDS011;58101;48.658;2.328;2022-12-07T16:04:19;24.52;;;8.38;;
70549;SDS011;58101;48.658;2.328;2022-12-07T16:06:45;21.33;;;8.48;;
70549;SDS011;58101;48.658;2.328;2022-12-07T16:09:11;30.13;;;10.68;;
70549;SDS011;58101;48.658;2.328;2022-12-07T16:11:37;34.25;;;12.88;;
70549;SDS011;58101;48.658;2.328;2022-12-07T16:14:03;31.58;;;11.68;;
70549;SDS011;58101;48.658;2.328;2022-12-07T16:16:28;27.35;;;11.55;;
70549;SDS011;58101;48.658;2.328;2022-12-07T16:18:54;28.75;;;11.43;;
70549;SDS011;58101;48.658;2.328;2022-12-07T16:21:20;29.00;;;11.30;;
70549;SDS011;58101;48.658;2.328;2022-12-07T16:23:46;28.00;;;10.48;;
70549;SDS011;58101;48.658;2.328;2022-12-07T16:26:14;33.10;;;10.98;;
70549;SDS011;58101;48.658;2.328;2022-12-07T16:28:41;30.52;;;10.38;;
70549;SDS011;58101;48.658;2.328;2022-12-07T16:31:09;27.58;;;9.77;;
70549;SDS011;58101;48.658;2.328;2022-12-07T16:33:39;27.00;;;10.13;;
70549;SDS011;58101;48.658;2.328;2022-12-07T16:36:07;22.77;;;9.23;;
70549;SDS011;58101;48.658;2.328;2022-12-07T16:38:35;20.10;;;8.57;;
70549;SDS011;58101;48.658;2.328;2022-12-07T16:41:01;20.40;;;8.82;;
70549;SDS011;58101;48.658;2.328;2022-12-07T16:43:26;25.20;;;9.63;;
70549;SDS011;58101;48.658;2.328;2022-12-07T16:45:52;26.88;;;10.52;;
70549;SDS011;58101;48.658;2.328;2022-12-07T16:48:18;23.88;;;9.25;;
70549;SDS011;58101;48.658;2.328;2022-12-07T16:50:44;26.05;;;9.68;;
70549;SDS011;58101;48.658;2.328;2022-12-07T16:53:10;27.50;;;9.48;;
70549;SDS011;58101;48.658;2.328;2022-12-07T16:55:37;27.75;;;10.73;;
70549;SDS011;58101;48.658;2.328;2022-12-07T16:58:04;30.15;;;10.48;;
70549;SDS011;58101;48.658;2.328;2022-12-07T17:00:31;26.60;;;10.30;;
70549;SDS011;58101;48.658;2.328;2022-12-07T17:02:57;27.85;;;10.50;;
70549;SDS011;58101;48.658;2.328;2022-12-07T17:05:23;26.95;;;10.70;;
70549;SDS011;58101;48.658;2.328;2022-12-07T17:07:49;26.73;;;10.02;;
70549;SDS011;58101;48.658;2.328;2022-12-07T17:10:28;25.35;;;10.02;;
70549;SDS011;58101;48.658;2.328;2022-12-07T17:12:53;25.88;;;10.15;;
70549;SDS011;58101;48.658;2.328;2022-12-07T17:15:19;27.48;;;10.60;;
70549;SDS011;58101;48.658;2.328;2022-12-07T17:17:51;25.88;;;10.30;;
70549;SDS011;58101;48.658;2.328;2022-12-07T17:20:25;28.23;;;10.88;;
70549;SDS011;58101;48.658;2.328;2022-12-07T17:22:52;27.08;;;11.18;;
70549;SDS011;58101;48.658;2.328;2022-12-07T17:25:18;31.02;;;12.75;;
70549;SDS011;58101;48.658;2.328;2022-12-07T17:27:44;33.10;;;13.25;;
70549;SDS011;58101;48.658;2.328;2022-12-07T17:30:11;30.13;;;11.27;;
70549;SDS011;58101;48.658;2.328;2022-12-07T17:32:37;29.15;;;12.13;;
70549;SDS011;58101;48.658;2.328;2022-12-07T17:35:03;40.70;;;16.15;;